Time;durP1;ratioP1;P1;durP2;ratioP2;P2;SDS_P1;SDS_P2;PMS_P1;PMS_P2;Temp;Humidity;BMP_temperature;BMP_pressure;BME280_temperature;BME280_humidity;BME280_pressure;Samples;Min_cycle;Max_cycle;Signal;HPM_P1;HPM_P2
2024/03/07 00:01:33;;;;;;;2.55;1.20;;;;;;;;;;5076835;28;20035;-58
2024/03/07 00:03:58;;;;;;;2.72;1.13;;;;;;;;;;5074630;28;20387;-59
2024/03/07 00:06:24;;;;;;;4.03;0.90;;;;;;;;;;5071334;28;20035;-59
2024/03/07 00:08:49;;;;;;;3.38;0.90;;;;;;;;;;5081852;28;20032;-60
2024/03/07 00:11:14;;;;;;;4.13;1.02;;;;;;;;;;5085476;28;20086;-60
2024/03/07 00:13:40;;;;;;;2.25;1.10;;;;;;;;;;5087194;28;20086;-53
2024/03/07 00:16:05;;;;;;;2.30;1.08;;;;;;;;;;5076131;28;20072;-54
2024/03/07 00:18:30;;;;;;;1.65;0.90;;;;;;;;;;5077631;28;20051;-51
2024/03/07 00:20:56;;;;;;;2.15;0.80;;;;;;;;;;5072249;28;20075;-50
2024/03/07 00:23:21;;;;;;;2.10;0.80;;;;;;;;;;5070299;28;20040;-52
2024/03/07 00:25:49;;;;;;;4.30;1.33;;;;;;;;;;5071709;28;20033;-53
2024/03/07 00:28:17;;;;;;;2.60;0.80;;;;;;;;;;5069785;28;20500;-50
2024/03/07 00:30:44;;;;;;;1.80;0.90;;;;;;;;;;5077366;28;20098;-55
2024/03/07 00:33:10;;;;;;;2.65;1.00;;;;;;;;;;5078193;28;20036;-53
2024/03/07 00:35:35;;;;;;;1.98;0.93;;;;;;;;;;5076018;28;20472;-51
2024/03/07 00:38:00;;;;;;;2.33;0.90;;;;;;;;;;5071078;28;20033;-52
2024/03/07 00:40:26;;;;;;;2.05;0.80;;;;;;;;;;5072583;28;20028;-54
2024/03/07 00:42:51;;;;;;;1.70;0.98;;;;;;;;;;5082773;28;20043;-51
2024/03/07 00:45:17;;;;;;;2.25;0.98;;;;;;;;;;5069713;28;20492;-51
2024/03/07 00:47:42;;;;;;;2.63;1.00;;;;;;;;;;5073698;28;20028;-55
2024/03/07 00:50:08;;;;;;;2.17;1.00;;;;;;;;;;5079209;28;20036;-52
2024/03/07 00:52:34;;;;;;;2.85;0.80;;;;;;;;;;5080505;28;20463;-50
2024/03/07 00:54:59;;;;;;;3.80;1.00;;;;;;;;;;5078568;28;20032;-53
2024/03/07 00:57:24;;;;;;;2.03;1.00;;;;;;;;;;5086391;28;20046;-50
2024/03/07 00:59:50;;;;;;;1.90;0.80;;;;;;;;;;5075868;28;20495;-51
2024/03/07 01:02:17;;;;;;;1.88;0.80;;;;;;;;;;5077524;28;20467;-49
2024/03/07 01:04:42;;;;;;;3.10;0.90;;;;;;;;;;5082122;28;20032;-55
2024/03/07 01:07:08;;;;;;;2.90;0.88;;;;;;;;;;5080692;28;20100;-54
2024/03/07 01:09:35;;;;;;;2.63;0.70;;;;;;;;;;5081915;28;20066;-52
2024/03/07 01:12:04;;;;;;;1.27;0.70;;;;;;;;;;5090215;28;20173;-52
2024/03/07 01:14:30;;;;;;;1.85;0.93;;;;;;;;;;5080024;28;20028;-54
2024/03/07 01:16:56;;;;;;;3.75;0.90;;;;;;;;;;5077163;28;20480;-49
2024/03/07 01:19:21;;;;;;;3.35;0.90;;;;;;;;;;5079953;28;20111;-53
2024/03/07 01:21:47;;;;;;;1.90;0.90;;;;;;;;;;5071452;28;20119;-58
2024/03/07 01:24:17;;;;;;;2.10;0.90;;;;;;;;;;5074730;28;20150;-60
2024/03/07 01:26:43;;;;;;;2.33;0.95;;;;;;;;;;5078222;28;20491;-58
2024/03/07 01:29:08;;;;;;;1.83;0.80;;;;;;;;;;5073370;28;20036;-58
2024/03/07 01:31:34;;;;;;;1.67;0.80;;;;;;;;;;5077772;28;20036;-59
2024/03/07 01:33:59;;;;;;;1.73;0.90;;;;;;;;;;5071617;28;20058;-53
2024/03/07 01:36:24;;;;;;;2.03;0.77;;;;;;;;;;5078399;28;20229;-51
2024/03/07 01:38:51;;;;;;;2.25;0.80;;;;;;;;;;5089057;28;20111;-50
2024/03/07 01:41:16;;;;;;;1.25;0.75;;;;;;;;;;5082626;28;20048;-58
2024/03/07 01:43:42;;;;;;;6.35;1.10;;;;;;;;;;5073399;28;20395;-59
2024/03/07 01:46:08;;;;;;;1.52;0.80;;;;;;;;;;5074537;28;20468;-61
2024/03/07 01:48:34;;;;;;;1.75;0.80;;;;;;;;;;5074572;28;20479;-61
2024/03/07 01:50:59;;;;;;;2.08;0.80;;;;;;;;;;5074858;28;20043;-58
2024/03/07 01:53:26;;;;;;;1.75;0.90;;;;;;;;;;5083602;28;20043;-61
2024/03/07 01:55:53;;;;;;;2.05;0.90;;;;;;;;;;5082335;28;20048;-56
2024/03/07 01:58:19;;;;;;;1.15;0.68;;;;;;;;;;5080482;28;20097;-53
2024/03/07 02:00:45;;;;;;;1.83;0.95;;;;;;;;;;5079364;28;20464;-55
2024/03/07 02:03:10;;;;;;;1.35;0.70;;;;;;;;;;5074871;28;20439;-52
2024/03/07 02:05:35;;;;;;;1.85;0.80;;;;;;;;;;5082117;28;20093;-53
2024/03/07 02:08:04;;;;;;;0.98;0.57;;;;;;;;;;5087068;28;20039;-54
2024/03/07 02:10:29;;;;;;;2.25;0.90;;;;;;;;;;5081649;28;20037;-54
2024/03/07 02:12:55;;;;;;;1.50;0.75;;;;;;;;;;5078183;28;20056;-51
2024/03/07 02:15:21;;;;;;;1.42;0.68;;;;;;;;;;5073150;28;20073;-52
2024/03/07 02:17:46;;;;;;;3.20;0.90;;;;;;;;;;5079965;28;20052;-52
2024/03/07 02:20:13;;;;;;;1.63;0.70;;;;;;;;;;5074298;28;20028;-54
2024/03/07 02:22:38;;;;;;;1.35;0.77;;;;;;;;;;5086510;28;20032;-54
2024/03/07 02:25:04;;;;;;;1.20;0.77;;;;;;;;;;5080277;28;20040;-55
2024/03/07 02:27:30;;;;;;;1.42;0.70;;;;;;;;;;5088520;28;20119;-55
2024/03/07 02:29:55;;;;;;;2.47;0.70;;;;;;;;;;5081362;28;20072;-51
2024/03/07 02:32:20;;;;;;;1.38;0.60;;;;;;;;;;5081184;28;20071;-53
2024/03/07 02:34:46;;;;;;;1.70;0.70;;;;;;;;;;5076608;28;20028;-53
2024/03/07 02:37:12;;;;;;;1.98;0.82;;;;;;;;;;5087329;28;20464;-49
2024/03/07 02:39:38;;;;;;;3.05;0.90;;;;;;;;;;5077611;28;20044;-51
2024/03/07 02:42:03;;;;;;;1.52;0.80;;;;;;;;;;5078531;28;20067;-53
2024/03/07 02:44:30;;;;;;;2.00;0.73;;;;;;;;;;5071664;28;20052;-50
2024/03/07 02:46:55;;;;;;;1.40;0.80;;;;;;;;;;5077167;28;20096;-50
2024/03/07 02:49:21;;;;;;;1.70;0.80;;;;;;;;;;5076711;28;20037;-54
2024/03/07 02:51:47;;;;;;;1.40;0.80;;;;;;;;;;5071436;28;20039;-52
2024/03/07 02:54:12;;;;;;;1.13;0.60;;;;;;;;;;5081086;28;20044;-53
2024/03/07 02:56:38;;;;;;;1.35;0.70;;;;;;;;;;5085883;28;20032;-54
2024/03/07 02:59:03;;;;;;;1.50;0.80;;;;;;;;;;5074491;28;20079;-54
2024/03/07 03:01:28;;;;;;;1.55;0.70;;;;;;;;;;5076756;28;20040;-53
2024/03/07 03:03:54;;;;;;;1.70;0.70;;;;;;;;;;5076678;28;20029;-51
2024/03/07 03:06:22;;;;;;;1.10;0.70;;;;;;;;;;5071769;28;20024;-49
2024/03/07 03:08:47;;;;;;;1.45;0.80;;;;;;;;;;5077558;28;20093;-52
2024/03/07 03:11:13;;;;;;;1.50;0.80;;;;;;;;;;5079069;28;20475;-50
2024/03/07 03:13:42;;;;;;;1.60;0.80;;;;;;;;;;5077133;28;20053;-50
2024/03/07 03:16:08;;;;;;;1.88;0.70;;;;;;;;;;5072972;28;20040;-54
2024/03/07 03:18:34;;;;;;;1.95;0.90;;;;;;;;;;5075810;28;20024;-53
2024/03/07 03:21:02;;;;;;;1.48;0.77;;;;;;;;;;5071736;28;20035;-53
2024/03/07 03:23:28;;;;;;;1.75;0.70;;;;;;;;;;5080441;28;20467;-52
2024/03/07 03:25:55;;;;;;;1.45;0.75;;;;;;;;;;5069756;28;20132;-50
2024/03/07 03:28:20;;;;;;;1.55;0.77;;;;;;;;;;5085029;28;20036;-49
2024/03/07 03:30:47;;;;;;;1.98;0.80;;;;;;;;;;5081210;28;20058;-53
2024/03/07 03:33:12;;;;;;;1.08;0.60;;;;;;;;;;5079069;28;20031;-52
2024/03/07 03:35:38;;;;;;;1.40;0.80;;;;;;;;;;5070676;28;20037;-52
2024/03/07 03:38:04;;;;;;;1.65;0.70;;;;;;;;;;5076460;28;20097;-50
2024/03/07 03:40:29;;;;;;;1.52;0.82;;;;;;;;;;5071354;28;20491;-51
2024/03/07 03:42:55;;;;;;;1.75;0.80;;;;;;;;;;5080784;28;20040;-49
2024/03/07 03:45:20;;;;;;;0.82;0.65;;;;;;;;;;5072320;28;20040;-52
2024/03/07 03:47:46;;;;;;;1.48;0.80;;;;;;;;;;5071828;28;20480;-53
2024/03/07 03:50:12;;;;;;;1.55;0.80;;;;;;;;;;5072480;28;20024;-51
2024/03/07 03:52:39;;;;;;;1.42;0.88;;;;;;;;;;5088989;28;20119;-50
2024/03/07 03:55:14;;;;;;;4.05;1.00;;;;;;;;;;5077612;28;20124;-51
2024/03/07 03:57:41;;;;;;;1.83;0.77;;;;;;;;;;5072546;28;20113;-52
2024/03/07 04:00:14;;;;;;;1.13;0.70;;;;;;;;;;5075562;28;20048;-53
2024/03/07 04:02:41;;;;;;;1.38;0.70;;;;;;;;;;5065919;28;20060;-53
2024/03/07 04:05:09;;;;;;;4.22;0.80;;;;;;;;;;5070075;28;20052;-49
2024/03/07 04:07:35;;;;;;;1.50;0.80;;;;;;;;;;5080162;28;20608;-49
2024/03/07 04:10:02;;;;;;;4.00;0.70;;;;;;;;;;5082868;28;20503;-53
2024/03/07 04:12:28;;;;;;;1.23;0.73;;;;;;;;;;5080517;28;20139;-54
2024/03/07 04:14:56;;;;;;;1.30;0.70;;;;;;;;;;5083359;28;20111;-50
2024/03/07 04:17:22;;;;;;;0.88;0.60;;;;;;;;;;5074379;28;20582;-50
2024/03/07 04:19:47;;;;;;;0.88;0.60;;;;;;;;;;5079036;28;20123;-53
2024/03/07 04:22:12;;;;;;;1.63;0.80;;;;;;;;;;5073723;28;20067;-49
2024/03/07 04:24:38;;;;;;;1.27;0.70;;;;;;;;;;5082788;28;20052;-50
2024/03/07 04:27:04;;;;;;;1.13;0.68;;;;;;;;;;5085077;28;20043;-50
2024/03/07 04:29:33;;;;;;;1.00;0.60;;;;;;;;;;5084925;28;20113;-49
2024/03/07 04:32:01;;;;;;;1.35;0.80;;;;;;;;;;5083286;28;20032;-52
2024/03/07 04:34:27;;;;;;;0.98;0.65;;;;;;;;;;5080465;28;20046;-53
2024/03/07 04:36:53;;;;;;;2.08;0.98;;;;;;;;;;5075962;28;20112;-53
2024/03/07 04:39:27;;;;;;;3.28;0.70;;;;;;;;;;5081300;28;20428;-51
2024/03/07 04:41:53;;;;;;;1.45;0.70;;;;;;;;;;5077327;28;20032;-51
2024/03/07 04:44:22;;;;;;;1.67;0.80;;;;;;;;;;5081028;28;20024;-53
2024/03/07 04:46:49;;;;;;;1.10;0.70;;;;;;;;;;5080937;28;20628;-50
2024/03/07 04:49:15;;;;;;;1.70;0.90;;;;;;;;;;5076723;28;20490;-52
2024/03/07 04:51:40;;;;;;;1.50;0.70;;;;;;;;;;5078325;28;20040;-49
2024/03/07 04:54:06;;;;;;;0.98;0.65;;;;;;;;;;5080925;28;20040;-53
2024/03/07 04:56:31;;;;;;;1.30;0.80;;;;;;;;;;5082127;28;20086;-54
2024/03/07 04:58:57;;;;;;;1.40;0.80;;;;;;;;;;5074017;28;20403;-51
2024/03/07 05:01:22;;;;;;;1.10;0.70;;;;;;;;;;5078739;28;20032;-51
2024/03/07 05:03:47;;;;;;;1.67;0.60;;;;;;;;;;5084111;28;20675;-49
2024/03/07 05:06:13;;;;;;;1.30;0.80;;;;;;;;;;5074209;28;20038;-50
2024/03/07 05:08:38;;;;;;;1.05;0.70;;;;;;;;;;5086007;28;20475;-53
2024/03/07 05:11:04;;;;;;;2.38;0.80;;;;;;;;;;5078562;28;20681;-51
2024/03/07 05:13:31;;;;;;;1.58;0.80;;;;;;;;;;5074802;28;20480;-51
2024/03/07 05:15:57;;;;;;;1.70;0.82;;;;;;;;;;5073080;28;20435;-54
2024/03/07 05:18:22;;;;;;;1.50;0.80;;;;;;;;;;5077839;28;20499;-53
2024/03/07 05:20:48;;;;;;;1.23;0.80;;;;;;;;;;5072815;28;20028;-52
2024/03/07 05:23:14;;;;;;;1.80;0.80;;;;;;;;;;5077926;28;20039;-53
2024/03/07 05:25:40;;;;;;;1.23;0.70;;;;;;;;;;5076780;28;20086;-50
2024/03/07 05:28:05;;;;;;;2.30;0.88;;;;;;;;;;5076850;28;20039;-53
2024/03/07 05:30:32;;;;;;;1.40;0.70;;;;;;;;;;5078986;28;20071;-52
2024/03/07 05:32:58;;;;;;;2.08;0.90;;;;;;;;;;5084689;28;20119;-52
2024/03/07 05:35:24;;;;;;;1.30;0.77;;;;;;;;;;5078866;28;20078;-55
2024/03/07 05:37:50;;;;;;;2.47;1.05;;;;;;;;;;5088128;28;20035;-50
2024/03/07 05:40:16;;;;;;;1.65;1.00;;;;;;;;;;5082084;28;20533;-52
2024/03/07 05:42:41;;;;;;;2.03;1.05;;;;;;;;;;5073745;28;20108;-51
2024/03/07 05:45:07;;;;;;;2.25;1.30;;;;;;;;;;5073415;28;20392;-52
2024/03/07 05:47:33;;;;;;;1.80;1.00;;;;;;;;;;5088666;28;20032;-53
2024/03/07 05:49:58;;;;;;;2.20;1.05;;;;;;;;;;5080718;28;20375;-52
2024/03/07 05:52:24;;;;;;;1.73;1.00;;;;;;;;;;5087382;28;20035;-52
2024/03/07 05:54:49;;;;;;;3.25;1.17;;;;;;;;;;5084429;28;20514;-54
2024/03/07 05:57:14;;;;;;;2.58;1.40;;;;;;;;;;5087202;28;20035;-53
2024/03/07 05:59:40;;;;;;;2.58;1.10;;;;;;;;;;5081848;28;20052;-49
2024/03/07 06:02:05;;;;;;;3.55;1.10;;;;;;;;;;5073197;28;20028;-50
2024/03/07 06:04:31;;;;;;;1.92;1.00;;;;;;;;;;5078308;28;20223;-51
2024/03/07 06:06:57;;;;;;;2.13;1.00;;;;;;;;;;5078919;28;20075;-51
2024/03/07 06:09:23;;;;;;;2.13;1.00;;;;;;;;;;5088109;28;20090;-53
2024/03/07 06:11:49;;;;;;;2.53;1.10;;;;;;;;;;5086035;28;20552;-53
2024/03/07 06:14:14;;;;;;;3.00;1.00;;;;;;;;;;5087819;28;20115;-55
2024/03/07 06:16:40;;;;;;;2.78;1.08;;;;;;;;;;5086588;28;20071;-52
2024/03/07 06:19:07;;;;;;;2.08;1.10;;;;;;;;;;5082820;28;20056;-51
2024/03/07 06:21:33;;;;;;;5.05;1.40;;;;;;;;;;5078106;28;20487;-49
2024/03/07 06:23:59;;;;;;;2.47;1.25;;;;;;;;;;5079428;28;20033;-49
2024/03/07 06:26:37;;;;;;;2.70;1.35;;;;;;;;;;5076220;28;20113;-53
2024/03/07 06:29:06;;;;;;;2.40;1.17;;;;;;;;;;5081854;28;20048;-53
2024/03/07 06:31:32;;;;;;;2.53;1.23;;;;;;;;;;5074519;28;20032;-52
2024/03/07 06:33:57;;;;;;;2.35;1.20;;;;;;;;;;5077250;28;20578;-51
2024/03/07 06:36:24;;;;;;;2.42;1.10;;;;;;;;;;5079267;28;20047;-53
2024/03/07 06:38:49;;;;;;;3.00;1.40;;;;;;;;;;5086276;28;20433;-50
2024/03/07 06:41:14;;;;;;;1.88;1.00;;;;;;;;;;5082719;28;20036;-52
2024/03/07 06:43:40;;;;;;;2.78;1.40;;;;;;;;;;5088545;28;20176;-51
2024/03/07 06:46:06;;;;;;;2.17;1.20;;;;;;;;;;5075598;28;20056;-51
2024/03/07 06:48:31;;;;;;;2.70;1.35;;;;;;;;;;5078325;28;20043;-50
2024/03/07 06:50:57;;;;;;;3.15;1.50;;;;;;;;;;5081405;28;20076;-49
2024/03/07 06:53:26;;;;;;;2.28;1.30;;;;;;;;;;5085655;28;20036;-50
2024/03/07 06:55:53;;;;;;;2.00;1.10;;;;;;;;;;5073909;28;20036;-53
2024/03/07 06:58:19;;;;;;;2.45;1.10;;;;;;;;;;5078997;28;20123;-54
2024/03/07 07:00:45;;;;;;;2.15;1.15;;;;;;;;;;5073843;28;20097;-52
2024/03/07 07:03:12;;;;;;;2.53;0.93;;;;;;;;;;5072277;28;20036;-53
2024/03/07 07:05:40;;;;;;;2.00;1.08;;;;;;;;;;5069862;28;20036;-54
2024/03/07 07:08:06;;;;;;;3.60;1.38;;;;;;;;;;5067690;28;20036;-54
2024/03/07 07:10:32;;;;;;;3.17;1.20;;;;;;;;;;5071582;28;20445;-53
2024/03/07 07:12:57;;;;;;;2.67;1.00;;;;;;;;;;5078924;28;20833;-57
2024/03/07 07:15:22;;;;;;;1.90;1.00;;;;;;;;;;5075826;28;20115;-60
2024/03/07 07:17:49;;;;;;;1.92;1.10;;;;;;;;;;5080469;28;20512;-59
2024/03/07 07:20:18;;;;;;;2.20;1.10;;;;;;;;;;5082688;28;20036;-59
2024/03/07 07:22:46;;;;;;;2.15;1.00;;;;;;;;;;5074251;28;20122;-58
2024/03/07 07:25:15;;;;;;;2.45;1.08;;;;;;;;;;5073001;28;20028;-56
2024/03/07 07:27:44;;;;;;;2.30;1.08;;;;;;;;;;5080309;28;20476;-59
2024/03/07 07:30:11;;;;;;;2.38;1.15;;;;;;;;;;5073149;28;20515;-59
2024/03/07 07:32:36;;;;;;;2.88;1.20;;;;;;;;;;5071798;28;20120;-58
2024/03/07 07:35:02;;;;;;;3.83;1.13;;;;;;;;;;5073542;28;20115;-57
2024/03/07 07:37:27;;;;;;;2.15;1.13;;;;;;;;;;5072467;28;20041;-59
2024/03/07 07:39:53;;;;;;;2.75;1.17;;;;;;;;;;5076540;28;20622;-60
2024/03/07 07:42:18;;;;;;;3.40;0.98;;;;;;;;;;5080321;28;20040;-60
2024/03/07 07:44:43;;;;;;;5.47;1.20;;;;;;;;;;5076759;28;20043;-60
2024/03/07 07:47:10;;;;;;;4.55;1.50;;;;;;;;;;5077455;28;20037;-53
2024/03/07 07:49:38;;;;;;;2.65;1.10;;;;;;;;;;5074757;28;20067;-54
2024/03/07 07:52:04;;;;;;;2.28;1.00;;;;;;;;;;5081487;28;20032;-51
2024/03/07 07:54:29;;;;;;;2.20;1.20;;;;;;;;;;5071868;28;20628;-50
2024/03/07 07:56:55;;;;;;;3.53;1.20;;;;;;;;;;5078960;28;20033;-51
2024/03/07 07:59:20;;;;;;;2.72;1.38;;;;;;;;;;5090129;28;20044;-51
2024/03/07 08:01:46;;;;;;;3.30;1.33;;;;;;;;;;5090922;28;20439;-60
2024/03/07 08:04:11;;;;;;;2.70;1.20;;;;;;;;;;5087128;28;20502;-60
2024/03/07 08:06:37;;;;;;;2.40;1.20;;;;;;;;;;5074892;28;20395;-60
2024/03/07 08:09:02;;;;;;;2.67;1.08;;;;;;;;;;5082471;28;20114;-58
2024/03/07 08:11:28;;;;;;;3.35;1.17;;;;;;;;;;5059261;28;20044;-60
2024/03/07 08:13:54;;;;;;;2.80;1.10;;;;;;;;;;5074767;28;20029;-60
2024/03/07 08:16:19;;;;;;;2.13;1.00;;;;;;;;;;5078973;28;20169;-59
2024/03/07 08:18:44;;;;;;;2.63;1.27;;;;;;;;;;5090363;28;20507;-56
2024/03/07 08:21:10;;;;;;;2.70;1.00;;;;;;;;;;5088422;28;20624;-59
2024/03/07 08:23:36;;;;;;;3.05;1.10;;;;;;;;;;5078284;28;20519;-52
2024/03/07 08:26:02;;;;;;;2.08;0.98;;;;;;;;;;5081023;28;20085;-56
2024/03/07 08:28:27;;;;;;;6.57;1.13;;;;;;;;;;5090438;28;20041;-53
2024/03/07 08:30:53;;;;;;;3.75;1.08;;;;;;;;;;5071371;28;20040;-59
2024/03/07 08:33:21;;;;;;;2.72;1.00;;;;;;;;;;5076726;28;20033;-61
2024/03/07 08:35:47;;;;;;;4.15;1.00;;;;;;;;;;5075723;28;20032;-59
2024/03/07 08:38:12;;;;;;;2.92;1.10;;;;;;;;;;5081403;28;20044;-59
2024/03/07 08:40:38;;;;;;;2.30;1.10;;;;;;;;;;5075522;28;20036;-59
2024/03/07 08:43:04;;;;;;;4.90;1.08;;;;;;;;;;5073749;28;20036;-59
2024/03/07 08:45:33;;;;;;;3.22;0.95;;;;;;;;;;5083032;28;20032;-60
2024/03/07 08:47:58;;;;;;;2.90;1.40;;;;;;;;;;5085180;28;20047;-58
2024/03/07 08:50:23;;;;;;;2.30;0.95;;;;;;;;;;5090033;28;20028;-58
2024/03/07 08:52:49;;;;;;;2.33;1.20;;;;;;;;;;5079836;28;20040;-60
2024/03/07 08:55:20;;;;;;;2.08;1.05;;;;;;;;;;5084141;28;20050;-52
2024/03/07 08:57:49;;;;;;;3.90;1.10;;;;;;;;;;5083505;28;20103;-53
2024/03/07 09:00:22;;;;;;;2.75;0.88;;;;;;;;;;5064865;28;20048;-58
2024/03/07 09:02:50;;;;;;;5.20;1.10;;;;;;;;;;5069503;28;20082;-60
2024/03/07 09:05:16;;;;;;;3.90;1.20;;;;;;;;;;5076440;28;20639;-58
2024/03/07 09:07:41;;;;;;;2.70;1.20;;;;;;;;;;5075670;28;20086;-60
2024/03/07 09:10:07;;;;;;;2.55;1.13;;;;;;;;;;5079018;28;20364;-61
2024/03/07 09:12:33;;;;;;;2.63;1.00;;;;;;;;;;5069994;28;20541;-57
2024/03/07 09:14:58;;;;;;;2.85;1.30;;;;;;;;;;5074771;28;20032;-61
2024/03/07 09:17:23;;;;;;;5.25;1.10;;;;;;;;;;5077176;28;20034;-60
2024/03/07 09:19:49;;;;;;;3.72;1.40;;;;;;;;;;5067600;28;20415;-61
2024/03/07 09:22:15;;;;;;;3.50;1.17;;;;;;;;;;5071278;28;20053;-59
2024/03/07 09:24:40;;;;;;;2.35;1.10;;;;;;;;;;5084610;28;20039;-60
2024/03/07 09:27:06;;;;;;;2.63;1.60;;;;;;;;;;5081848;28;20135;-61
2024/03/07 09:29:31;;;;;;;6.00;1.20;;;;;;;;;;5055834;28;20048;-61
2024/03/07 09:31:57;;;;;;;3.03;1.27;;;;;;;;;;5077750;28;20349;-59
2024/03/07 09:34:23;;;;;;;2.20;1.10;;;;;;;;;;5059446;28;20123;-61
2024/03/07 09:36:49;;;;;;;2.25;1.13;;;;;;;;;;5083141;28;20032;-60
2024/03/07 09:39:14;;;;;;;2.63;1.17;;;;;;;;;;5077233;28;20096;-60
2024/03/07 09:41:40;;;;;;;2.47;1.20;;;;;;;;;;5075527;28;20036;-60
2024/03/07 09:44:08;;;;;;;2.28;1.15;;;;;;;;;;5072149;28;20040;-59
2024/03/07 09:46:34;;;;;;;3.15;1.52;;;;;;;;;;5080985;28;20036;-59
2024/03/07 09:49:00;;;;;;;3.20;1.30;;;;;;;;;;5071401;28;20459;-60
2024/03/07 09:51:25;;;;;;;3.08;1.50;;;;;;;;;;5073001;28;20500;-60
2024/03/07 09:53:52;;;;;;;2.38;1.35;;;;;;;;;;5077763;28;20050;-61
2024/03/07 09:56:20;;;;;;;4.65;1.50;;;;;;;;;;5081871;28;20499;-61
2024/03/07 09:58:52;;;;;;;2.20;1.20;;;;;;;;;;5080530;28;20052;-59
2024/03/07 10:01:21;;;;;;;4.50;1.35;;;;;;;;;;5085814;28;20032;-60
2024/03/07 10:03:50;;;;;;;2.95;1.50;;;;;;;;;;5080159;28;20073;-59
2024/03/07 10:06:15;;;;;;;2.78;1.48;;;;;;;;;;5076279;28;20107;-58
2024/03/07 10:08:42;;;;;;;2.60;1.38;;;;;;;;;;5078995;28;20119;-60
2024/03/07 10:11:10;;;;;;;3.35;1.40;;;;;;;;;;5075556;28;20072;-59
2024/03/07 10:13:35;;;;;;;2.10;1.20;;;;;;;;;;5076293;28;20039;-59
2024/03/07 10:16:01;;;;;;;2.72;1.38;;;;;;;;;;5072441;28;20029;-59
2024/03/07 10:18:27;;;;;;;2.03;1.00;;;;;;;;;;5075973;28;20054;-60
2024/03/07 10:20:56;;;;;;;2.33;1.20;;;;;;;;;;5070729;28;20044;-60
2024/03/07 10:23:22;;;;;;;2.88;1.38;;;;;;;;;;5074893;28;20042;-61
2024/03/07 10:25:48;;;;;;;2.60;1.30;;;;;;;;;;5069664;28;20048;-56
2024/03/07 10:28:16;;;;;;;3.65;1.38;;;;;;;;;;5078776;28;20548;-61
2024/03/07 10:30:44;;;;;;;2.30;1.23;;;;;;;;;;5067423;28;20040;-60
2024/03/07 10:33:12;;;;;;;3.38;1.33;;;;;;;;;;5073341;28;20047;-60
2024/03/07 10:35:38;;;;;;;3.08;1.25;;;;;;;;;;5070570;28;20376;-59
2024/03/07 10:38:06;;;;;;;2.20;1.00;;;;;;;;;;5079988;28;20047;-61
2024/03/07 10:40:32;;;;;;;3.83;1.20;;;;;;;;;;5079785;28;20044;-60
2024/03/07 10:43:02;;;;;;;3.53;1.10;;;;;;;;;;5082109;28;20039;-61
2024/03/07 10:45:28;;;;;;;3.08;1.75;;;;;;;;;;5082106;28;20885;-60
2024/03/07 10:47:55;;;;;;;4.60;1.38;;;;;;;;;;5085370;28;20395;-58
2024/03/07 10:50:42;;;;;;;2.47;1.30;;;;;;;;;;5072571;28;20093;-61
2024/03/07 10:53:30;;;;;;;3.70;1.42;;;;;;;;;;5081609;28;20179;-60
2024/03/07 10:56:20;;;;;;;3.17;1.63;;;;;;;;;;5081856;28;20036;-60
2024/03/07 10:59:02;;;;;;;2.95;1.60;;;;;;;;;;5063907;28;20059;-60
2024/03/07 11:01:31;;;;;;;2.85;1.27;;;;;;;;;;5064245;28;20479;-60
2024/03/07 11:03:57;;;;;;;2.63;1.25;;;;;;;;;;5076811;28;20036;-60
2024/03/07 11:06:24;;;;;;;1.95;1.00;;;;;;;;;;5071106;28;20016;-61
2024/03/07 11:08:49;;;;;;;2.88;1.30;;;;;;;;;;5066981;28;20032;-58
2024/03/07 11:11:14;;;;;;;4.13;1.20;;;;;;;;;;5078729;28;20036;-59
2024/03/07 11:13:40;;;;;;;2.28;1.10;;;;;;;;;;5077490;28;20160;-59
2024/03/07 11:16:06;;;;;;;2.63;1.30;;;;;;;;;;5077911;28;20622;-61
2024/03/07 11:18:31;;;;;;;2.20;1.17;;;;;;;;;;5069902;28;20036;-61
2024/03/07 11:20:57;;;;;;;2.75;1.40;;;;;;;;;;5071562;28;20033;-59
2024/03/07 11:23:32;;;;;;;2.45;1.35;;;;;;;;;;5077321;28;20572;-62
2024/03/07 11:26:11;;;;;;;3.08;1.45;;;;;;;;;;5054950;28;20033;-60
2024/03/07 11:28:40;;;;;;;3.08;1.45;;;;;;;;;;5068682;28;20032;-59
2024/03/07 11:31:24;;;;;;;4.10;1.60;;;;;;;;;;5084130;28;20123;-60
2024/03/07 11:34:11;;;;;;;3.30;1.30;;;;;;;;;;5070744;28;20063;-61
2024/03/07 11:36:44;;;;;;;2.92;1.50;;;;;;;;;;5082913;28;20035;-61
2024/03/07 11:39:42;;;;;;;3.10;1.38;;;;;;;;;;5077303;28;20025;-60
2024/03/07 11:42:08;;;;;;;3.10;1.38;;;;;;;;;;5065877;28;20047;-60
2024/03/07 11:44:39;;;;;;;2.53;1.52;;;;;;;;;;5071213;28;20032;-59
2024/03/07 11:47:08;;;;;;;3.45;1.42;;;;;;;;;;5075408;28;20048;-61
2024/03/07 11:49:37;;;;;;;3.22;1.42;;;;;;;;;;5078781;28;20036;-60
2024/03/07 11:52:11;;;;;;;2.38;1.40;;;;;;;;;;5075160;28;20043;-59
2024/03/07 11:54:38;;;;;;;3.65;1.42;;;;;;;;;;5080652;28;20047;-60
2024/03/07 11:57:12;;;;;;;2.50;1.45;;;;;;;;;;5080584;28;20496;-61
2024/03/07 11:59:39;;;;;;;3.17;1.30;;;;;;;;;;5052986;28;20139;-59
2024/03/07 12:02:04;;;;;;;4.38;1.30;;;;;;;;;;5065480;28;20043;-60
2024/03/07 12:04:30;;;;;;;3.08;1.63;;;;;;;;;;5079711;28;20028;-61
2024/03/07 12:06:56;;;;;;;3.33;1.40;;;;;;;;;;5074949;28;20032;-60
2024/03/07 12:09:23;;;;;;;2.67;1.30;;;;;;;;;;5076590;28;20051;-61
2024/03/07 12:11:52;;;;;;;2.45;1.38;;;;;;;;;;5077997;28;20365;-61
2024/03/07 12:14:19;;;;;;;2.85;1.50;;;;;;;;;;5076272;28;20063;-60
2024/03/07 12:16:45;;;;;;;3.30;1.30;;;;;;;;;;5078450;28;20547;-58
2024/03/07 12:19:10;;;;;;;2.97;1.30;;;;;;;;;;5071062;28;20115;-60
2024/03/07 12:21:36;;;;;;;2.70;1.40;;;;;;;;;;5075505;28;20161;-61
2024/03/07 12:24:13;;;;;;;3.80;1.70;;;;;;;;;;5076751;28;20051;-60
2024/03/07 12:26:39;;;;;;;2.78;1.42;;;;;;;;;;5083855;28;20114;-60
2024/03/07 12:29:11;;;;;;;3.08;1.35;;;;;;;;;;5072617;28;20120;-61
2024/03/07 12:31:40;;;;;;;2.93;1.30;;;;;;;;;;5065928;28;20049;-59
2024/03/07 12:34:05;;;;;;;4.18;1.30;;;;;;;;;;5067960;28;20340;-61
2024/03/07 12:36:34;;;;;;;2.67;1.50;;;;;;;;;;5073973;28;20456;-59
2024/03/07 12:39:24;;;;;;;3.58;1.50;;;;;;;;;;5067842;28;20037;-61
2024/03/07 12:41:52;;;;;;;2.72;1.30;;;;;;;;;;5072738;28;20037;-57
2024/03/07 12:44:19;;;;;;;2.53;1.23;;;;;;;;;;5072184;28;20032;-61
2024/03/07 12:46:53;;;;;;;3.00;1.38;;;;;;;;;;5073792;28;20044;-61
2024/03/07 12:49:19;;;;;;;5.32;2.00;;;;;;;;;;5070405;28;20025;-56
2024/03/07 12:51:44;;;;;;;2.53;1.20;;;;;;;;;;5074652;28;20090;-61
2024/03/07 12:54:09;;;;;;;2.25;1.30;;;;;;;;;;5077890;28;20035;-60
2024/03/07 12:56:39;;;;;;;3.15;1.45;;;;;;;;;;5077234;28;20024;-61
2024/03/07 12:59:08;;;;;;;3.22;1.52;;;;;;;;;;5082171;28;20491;-59
2024/03/07 13:01:37;;;;;;;2.67;1.55;;;;;;;;;;5081383;28;20043;-58
2024/03/07 13:04:04;;;;;;;3.20;1.98;;;;;;;;;;5080171;28;20037;-58
2024/03/07 13:06:29;;;;;;;3.60;1.88;;;;;;;;;;5075898;28;20039;-60
2024/03/07 13:08:58;;;;;;;2.92;1.52;;;;;;;;;;5073033;28;20368;-60
2024/03/07 13:11:23;;;;;;;3.13;1.65;;;;;;;;;;5072979;28;20029;-58
2024/03/07 13:13:49;;;;;;;2.75;1.50;;;;;;;;;;5068151;28;20028;-58
2024/03/07 13:16:14;;;;;;;3.72;1.77;;;;;;;;;;5066808;28;20039;-57
2024/03/07 13:18:40;;;;;;;3.97;1.65;;;;;;;;;;5066874;28;20041;-58
2024/03/07 13:21:06;;;;;;;2.92;1.55;;;;;;;;;;5072275;28;20048;-59
2024/03/07 13:23:32;;;;;;;3.13;1.70;;;;;;;;;;5070168;28;20036;-60
2024/03/07 13:26:01;;;;;;;4.05;1.70;;;;;;;;;;5053532;28;20043;-60
2024/03/07 13:28:28;;;;;;;4.00;1.92;;;;;;;;;;5067528;28;20515;-60
2024/03/07 13:30:54;;;;;;;3.88;1.98;;;;;;;;;;5072829;28;20100;-58
2024/03/07 13:33:20;;;;;;;3.20;1.60;;;;;;;;;;5067460;28;20032;-53
2024/03/07 13:35:45;;;;;;;4.13;1.70;;;;;;;;;;5066808;28;20067;-60
2024/03/07 13:38:12;;;;;;;2.53;1.55;;;;;;;;;;5063657;28;20040;-59
2024/03/07 13:40:39;;;;;;;3.38;1.80;;;;;;;;;;5067593;28;20028;-55
2024/03/07 13:43:05;;;;;;;2.95;1.40;;;;;;;;;;5060703;28;20036;-59
2024/03/07 13:45:43;;;;;;;3.50;1.92;;;;;;;;;;5069466;28;20028;-59
2024/03/07 13:48:10;;;;;;;4.25;2.10;;;;;;;;;;5079816;28;20028;-61
2024/03/07 13:50:37;;;;;;;3.72;1.67;;;;;;;;;;5067960;28;20506;-58
2024/03/07 13:55:34;;;;;;;2.67;1.60;;;;;;;;;;5073306;28;20037;-59
2024/03/07 13:58:04;;;;;;;3.05;1.63;;;;;;;;;;5066697;28;20086;-59
2024/03/07 14:00:55;;;;;;;3.88;1.70;;;;;;;;;;5070496;28;20052;-59
2024/03/07 14:04:03;;;;;;;3.03;1.40;;;;;;;;;;5076601;28;20082;-59
2024/03/07 14:06:44;;;;;;;4.70;1.60;;;;;;;;;;5075427;28;20131;-58
2024/03/07 14:09:25;;;;;;;2.42;1.23;;;;;;;;;;5077911;28;20047;-59
2024/03/07 14:12:13;;;;;;;3.80;1.60;;;;;;;;;;5076117;28;20044;-58
2024/03/07 14:15:32;;;;;;;3.28;1.80;;;;;;;;;;5084753;28;20052;-58
2024/03/07 14:18:25;;;;;;;3.22;1.70;;;;;;;;;;5079363;28;20036;-56
2024/03/07 14:21:03;;;;;;;3.50;1.60;;;;;;;;;;5067300;28;20037;-55
2024/03/07 14:23:37;;;;;;;2.85;1.30;;;;;;;;;;5078190;28;20223;-54
2024/03/07 14:26:24;;;;;;;4.68;1.98;;;;;;;;;;5074155;28;20078;-58
2024/03/07 14:29:10;;;;;;;2.65;1.30;;;;;;;;;;5066776;28;20040;-60
2024/03/07 14:31:39;;;;;;;3.00;1.52;;;;;;;;;;5080007;28;20040;-59
2024/03/07 14:34:05;;;;;;;3.50;1.98;;;;;;;;;;5068146;28;20068;-59
2024/03/07 14:36:50;;;;;;;5.45;1.95;;;;;;;;;;5070533;28;20090;-60
2024/03/07 14:39:22;;;;;;;3.40;1.67;;;;;;;;;;5078691;28;20037;-58
2024/03/07 14:42:01;;;;;;;3.20;1.67;;;;;;;;;;5082276;28;20143;-59
2024/03/07 14:44:28;;;;;;;4.03;1.75;;;;;;;;;;5070871;28;20453;-61
2024/03/07 14:46:59;;;;;;;3.58;2.08;;;;;;;;;;5074918;28;20419;-60
2024/03/07 14:49:24;;;;;;;3.15;1.58;;;;;;;;;;5059423;28;20028;-60